Time;durP1;ratioP1;P1;durP2;ratioP2;P2;SDS_P1;SDS_P2;PMS_P1;PMS_P2;Temp;Humidity;BMP_temperature;BMP_pressure;BME280_temperature;BME280_humidity;BME280_pressure;Samples;Min_cycle;Max_cycle;Signal;HPM_P1;HPM_P2
2023/04/16 00:02:11;;;;;;;6.30;2.75;;;12.20;66.10;;;;;;5016856;28;20046;-48
2023/04/16 00:04:40;;;;;;;3.13;2.28;;;12.20;66.00;;;;;;5021049;28;20046;-50
2023/04/16 00:07:07;;;;;;;3.67;2.97;;;12.20;66.50;;;;;;5019834;28;20140;-48
2023/04/16 00:09:38;;;;;;;7.75;2.97;;;12.20;65.80;;;;;;5019021;28;20147;-48
2023/04/16 00:12:05;;;;;;;4.72;3.00;;;12.20;65.80;;;;;;5023404;28;20112;-51
2023/04/16 00:14:32;;;;;;;7.97;3.15;;;12.20;65.90;;;;;;5013901;28;20049;-50
2023/04/16 00:16:58;;;;;;;4.55;2.97;;;12.10;65.90;;;;;;5018970;28;20476;-47
2023/04/16 00:19:25;;;;;;;4.90;3.42;;;12.10;66.60;;;;;;5019360;28;20046;-49
2023/04/16 00:21:52;;;;;;;6.97;2.72;;;12.10;66.00;;;;;;5020153;28;20421;-51
2023/04/16 00:24:18;;;;;;;5.53;2.80;;;12.10;66.00;;;;;;5026789;28;20069;-47
2023/04/16 00:26:45;;;;;;;8.55;3.50;;;12.20;66.10;;;;;;5020427;28;20049;-47
2023/04/16 00:29:16;;;;;;;8.32;3.45;;;12.20;66.00;;;;;;5003393;28;20046;-52
2023/04/16 00:31:43;;;;;;;4.57;3.30;;;12.10;66.00;;;;;;5012255;28;20042;-48
2023/04/16 00:34:09;;;;;;;5.43;4.07;;;12.20;66.10;;;;;;5025766;28;20045;-46
2023/04/16 00:36:40;;;;;;;6.45;3.10;;;12.20;66.10;;;;;;5021489;28;20821;-48
2023/04/16 00:39:06;;;;;;;5.25;3.65;;;12.10;66.10;;;;;;5023190;28;20462;-51
2023/04/16 00:41:33;;;;;;;6.63;3.38;;;12.10;66.30;;;;;;5021624;28;20038;-47
2023/04/16 00:44:00;;;;;;;12.68;3.92;;;12.10;66.20;;;;;;5016423;28;20042;-47
2023/04/16 00:46:30;;;;;;;7.85;3.80;;;12.10;66.30;;;;;;5010219;28;20132;-49
2023/04/16 00:48:59;;;;;;;6.75;3.85;;;12.10;66.30;;;;;;5020591;28;20049;-50
2023/04/16 00:51:26;;;;;;;5.75;4.03;;;12.10;66.40;;;;;;5011520;28;20391;-49
2023/04/16 00:53:54;;;;;;;6.55;3.55;;;12.10;66.30;;;;;;5013414;28;20141;-45
2023/04/16 00:56:22;;;;;;;6.32;4.03;;;12.10;66.40;;;;;;5023603;28;20056;-47
2023/04/16 00:58:49;;;;;;;6.68;4.50;;;12.10;66.40;;;;;;5020480;28;20516;-51
2023/04/16 01:01:16;;;;;;;5.72;4.05;;;12.10;67.10;;;;;;5012889;28;20556;-49
2023/04/16 01:03:45;;;;;;;6.70;4.53;;;12.10;67.10;;;;;;4988238;28;20049;-49
2023/04/16 01:06:17;;;;;;;7.57;4.70;;;12.10;66.60;;;;;;5019462;28;20518;-54
2023/04/16 01:08:45;;;;;;;4.72;4.20;;;12.10;66.80;;;;;;5005608;28;20504;-46
2023/04/16 01:11:16;;;;;;;5.97;4.88;;;12.00;66.60;;;;;;5030745;28;20064;-48
2023/04/16 01:13:43;;;;;;;7.30;4.90;;;12.00;66.70;;;;;;5018825;28;20548;-47
2023/04/16 01:16:13;;;;;;;7.60;4.68;;;12.00;66.80;;;;;;5019693;28;20069;-50
2023/04/16 01:18:40;;;;;;;6.93;4.95;;;12.00;66.90;;;;;;5021275;28;20518;-50
2023/04/16 01:21:08;;;;;;;6.60;4.65;;;12.00;66.90;;;;;;5011082;28;20041;-46
2023/04/16 01:23:37;;;;;;;8.85;4.45;;;12.00;67.10;;;;;;5018383;28;20135;-46
2023/04/16 01:26:04;;;;;;;7.15;5.28;;;12.00;67.20;;;;;;5012438;28;20053;-49
2023/04/16 01:28:30;;;;;;;7.28;5.03;;;12.00;67.20;;;;;;5018115;28;20041;-49
2023/04/16 01:30:57;;;;;;;6.40;4.75;;;12.00;67.40;;;;;;5019563;28;20441;-46
2023/04/16 01:33:35;;;;;;;7.00;4.65;;;12.00;67.30;;;;;;5016154;28;20038;-46
2023/04/16 01:36:02;;;;;;;8.65;4.60;;;12.00;67.30;;;;;;5021221;28;20073;-51
2023/04/16 01:38:29;;;;;;;7.18;4.75;;;12.00;67.40;;;;;;5009814;28;20050;-51
2023/04/16 01:40:58;;;;;;;9.30;5.55;;;12.00;67.50;;;;;;5012587;28;20041;-47
2023/04/16 01:43:25;;;;;;;9.43;5.15;;;12.00;67.70;;;;;;5006025;28;20052;-50
2023/04/16 01:45:58;;;;;;;7.28;4.47;;;12.00;67.60;;;;;;5024333;28;20506;-48
2023/04/16 01:48:27;;;;;;;6.18;4.50;;;12.00;67.80;;;;;;5019711;28;20057;-51
2023/04/16 01:50:57;;;;;;;7.13;4.97;;;11.90;67.70;;;;;;5027093;28;20092;-49
2023/04/16 01:53:23;;;;;;;8.15;4.90;;;12.00;67.90;;;;;;5026329;28;20133;-47
2023/04/16 01:55:50;;;;;;;8.00;4.80;;;11.90;67.90;;;;;;5010020;28;20378;-46
2023/04/16 01:58:19;;;;;;;10.43;4.68;;;11.90;68.00;;;;;;5010817;28;20045;-46
2023/04/16 02:00:48;;;;;;;8.70;5.15;;;11.90;68.30;;;;;;5014352;28;20068;-46
2023/04/16 02:03:17;;;;;;;9.95;5.25;;;11.90;68.10;;;;;;5007660;28;20057;-49
2023/04/16 02:05:44;;;;;;;7.57;4.78;;;12.00;68.20;;;;;;5014107;28;20056;-50
2023/04/16 02:08:10;;;;;;;6.65;4.28;;;11.90;68.20;;;;;;5023577;28;20045;-46
2023/04/16 02:10:37;;;;;;;8.48;4.93;;;11.90;68.40;;;;;;5020396;28;20145;-50
2023/04/16 02:13:04;;;;;;;9.68;5.22;;;11.90;68.50;;;;;;5022134;28;20060;-46
2023/04/16 02:15:30;;;;;;;9.65;4.90;;;11.90;68.50;;;;;;5013377;28;20045;-49
2023/04/16 02:17:57;;;;;;;7.45;5.35;;;12.00;68.60;;;;;;5013497;28;20492;-47
2023/04/16 02:20:24;;;;;;;7.10;4.90;;;12.00;68.70;;;;;;5013545;28;20049;-49
2023/04/16 02:22:55;;;;;;;7.97;5.00;;;12.00;68.80;;;;;;5009199;28;20099;-48
2023/04/16 02:25:27;;;;;;;9.30;5.95;;;11.90;68.70;;;;;;5013637;28;20053;-51
2023/04/16 02:27:56;;;;;;;11.50;5.25;;;12.00;69.10;;;;;;5013554;28;20591;-49
2023/04/16 02:30:30;;;;;;;8.77;5.25;;;12.00;69.00;;;;;;5011890;28;20072;-47
2023/04/16 02:32:56;;;;;;;10.43;5.25;;;11.90;69.00;;;;;;5004784;28;20048;-48
2023/04/16 02:35:23;;;;;;;10.13;5.28;;;11.90;69.00;;;;;;5009075;28;20622;-46
2023/04/16 02:37:50;;;;;;;8.45;6.40;;;11.90;69.10;;;;;;5009554;28;20591;-53
2023/04/16 02:40:16;;;;;;;8.23;5.00;;;11.90;69.10;;;;;;5023707;28;20120;-46
2023/04/16 02:42:43;;;;;;;8.02;5.18;;;11.90;69.30;;;;;;5027395;28;20034;-46
2023/04/16 02:45:10;;;;;;;9.63;5.13;;;11.90;69.50;;;;;;5009073;28;20046;-50
2023/04/16 02:47:37;;;;;;;11.55;5.57;;;11.90;69.50;;;;;;5012868;28;20049;-46
2023/04/16 02:50:06;;;;;;;10.40;6.32;;;11.90;69.60;;;;;;5002929;28;20413;-46
2023/04/16 02:52:33;;;;;;;8.57;5.25;;;11.90;69.70;;;;;;5007296;28;20044;-49
2023/04/16 02:55:00;;;;;;;6.80;4.45;;;11.90;69.70;;;;;;5009571;28;20049;-47
2023/04/16 02:57:26;;;;;;;8.10;5.57;;;11.90;69.90;;;;;;5013021;28;20064;-51
2023/04/16 02:59:53;;;;;;;10.63;5.22;;;11.90;69.90;;;;;;5022717;28;20068;-47
2023/04/16 03:02:25;;;;;;;10.68;5.95;;;11.90;70.00;;;;;;5011602;28;20050;-50
2023/04/16 03:04:53;;;;;;;13.40;5.40;;;11.90;70.10;;;;;;5005468;28;20127;-46
2023/04/16 03:07:20;;;;;;;12.02;6.20;;;11.90;70.00;;;;;;5008863;28;20045;-48
2023/04/16 03:09:46;;;;;;;11.43;5.18;;;11.90;70.10;;;;;;5009664;28;20046;-50
2023/04/16 03:12:13;;;;;;;12.63;6.22;;;11.90;70.10;;;;;;5044410;22;20048;-46
2023/04/16 03:14:40;;;;;;;15.02;6.68;;;11.90;70.10;;;;;;5013465;28;20046;-49
2023/04/16 03:17:06;;;;;;;13.07;5.90;;;11.90;70.10;;;;;;5027884;28;20045;-44
2023/04/16 03:19:33;;;;;;;10.38;5.85;;;11.90;70.40;;;;;;5029819;28;20053;-43
2023/04/16 03:22:00;;;;;;;10.98;5.90;;;11.90;70.40;;;;;;5027764;28;20730;-47
2023/04/16 03:24:27;;;;;;;7.60;5.85;;;11.90;70.40;;;;;;5005040;28;20046;-48
2023/04/16 03:26:55;;;;;;;11.55;6.65;;;11.90;70.60;;;;;;4990797;28;20049;-48
2023/04/16 03:29:23;;;;;;;15.05;6.03;;;11.90;70.70;;;;;;5009646;28;20121;-50
2023/04/16 03:31:51;;;;;;;8.52;5.80;;;11.80;70.80;;;;;;5009486;28;20401;-46
2023/04/16 03:34:21;;;;;;;9.00;5.68;;;11.80;70.80;;;;;;4986785;28;20050;-46
2023/04/16 03:36:48;;;;;;;8.73;5.80;;;11.80;70.90;;;;;;5002399;28;20449;-46
2023/04/16 03:39:15;;;;;;;12.45;5.85;;;11.80;71.00;;;;;;4992916;28;20514;-46
2023/04/16 03:41:42;;;;;;;8.05;5.38;;;11.80;71.10;;;;;;4979445;28;20096;-46
2023/04/16 03:44:08;;;;;;;12.93;6.20;;;11.80;71.20;;;;;;4987613;28;20103;-46
2023/04/16 03:46:35;;;;;;;12.52;6.30;;;11.80;71.20;;;;;;4992898;28;20049;-46
2023/04/16 03:49:05;;;;;;;13.77;6.57;;;11.80;71.20;;;;;;4992846;28;20065;-47
2023/04/16 03:51:32;;;;;;;8.65;6.10;;;11.80;71.40;;;;;;4987998;28;20046;-47
2023/04/16 03:53:59;;;;;;;11.63;5.78;;;11.80;71.40;;;;;;5005287;28;20052;-48
2023/04/16 03:56:26;;;;;;;9.38;6.60;;;11.80;71.50;;;;;;4986638;28;20558;-47
2023/04/16 03:58:54;;;;;;;11.73;6.07;;;11.80;71.60;;;;;;4993857;28;20038;-47
2023/04/16 04:01:21;;;;;;;7.13;5.90;;;11.70;71.70;;;;;;5015117;28;20096;-48
2023/04/16 04:03:48;;;;;;;7.63;6.18;;;11.80;71.90;;;;;;4989691;28;20128;-47
2023/04/16 04:06:18;;;;;;;9.75;5.60;;;11.70;71.90;;;;;;5011830;28;20046;-46
2023/04/16 04:08:44;;;;;;;8.48;6.43;;;11.70;72.00;;;;;;5014521;28;20046;-47
2023/04/16 04:11:12;;;;;;;9.38;6.03;;;11.70;72.10;;;;;;5014400;28;20037;-46
2023/04/16 04:13:41;;;;;;;6.68;5.47;;;11.70;72.20;;;;;;4982432;28;20450;-49
2023/04/16 04:16:08;;;;;;;12.07;6.47;;;11.70;72.30;;;;;;5009612;28;20553;-47
2023/04/16 04:18:35;;;;;;;10.98;6.80;;;11.70;72.30;;;;;;4996216;28;20049;-46
2023/04/16 04:21:07;;;;;;;15.35;7.35;;;11.70;72.30;;;;;;4995957;28;20543;-50
2023/04/16 04:23:35;;;;;;;10.65;6.18;;;11.70;72.60;;;;;;5012301;28;20509;-45
2023/04/16 04:26:06;;;;;;;9.43;6.20;;;11.70;72.50;;;;;;4996894;28;20054;-49
2023/04/16 04:28:34;;;;;;;12.18;6.85;;;11.70;72.50;;;;;;5012786;28;20506;-47
2023/04/16 04:31:03;;;;;;;8.95;6.18;;;11.80;72.70;;;;;;4988493;28;20061;-47
2023/04/16 04:33:30;;;;;;;10.65;6.68;;;11.80;72.80;;;;;;5005652;28;20065;-48
2023/04/16 04:35:57;;;;;;;8.43;6.45;;;11.80;72.80;;;;;;5014474;28;20042;-46
2023/04/16 04:38:24;;;;;;;11.10;6.75;;;11.80;72.90;;;;;;4996281;28;20065;-48
2023/04/16 04:40:58;;;;;;;10.07;6.80;;;11.80;73.00;;;;;;5013151;28;20041;-47
2023/04/16 04:43:29;;;;;;;8.45;6.50;;;11.80;73.50;;;;;;4990848;28;20042;-48
2023/04/16 04:45:55;;;;;;;11.10;6.70;;;11.80;73.20;;;;;;5007888;28;20133;-46
2023/04/16 04:48:26;;;;;;;9.00;6.20;;;11.80;73.10;;;;;;4995434;28;20406;-47
2023/04/16 04:50:53;;;;;;;10.70;7.82;;;11.80;73.10;;;;;;5010512;28;20038;-48
2023/04/16 04:53:20;;;;;;;12.70;7.68;;;11.80;73.20;;;;;;5013460;28;20138;-47
2023/04/16 04:55:47;;;;;;;12.23;8.20;;;11.80;73.20;;;;;;5010960;28;20053;-49
2023/04/16 04:58:19;;;;;;;12.15;8.45;;;11.90;73.30;;;;;;4995984;28;20506;-46
2023/04/16 05:00:46;;;;;;;14.30;9.43;;;11.90;73.30;;;;;;5012816;28;20072;-47
2023/04/16 05:03:18;;;;;;;11.25;7.85;;;11.90;73.40;;;;;;5007843;28;20045;-46
2023/04/16 05:05:45;;;;;;;14.80;9.80;;;11.90;73.80;;;;;;5013768;28;20469;-47
2023/04/16 05:08:12;;;;;;;13.50;8.93;;;11.90;73.50;;;;;;5013614;28;20038;-48
2023/04/16 05:10:39;;;;;;;14.38;9.50;;;11.90;73.40;;;;;;5013666;28;20046;-47
2023/04/16 05:13:05;;;;;;;14.50;9.32;;;11.90;73.40;;;;;;5008115;28;20044;-46
2023/04/16 05:15:37;;;;;;;19.27;11.10;;;11.90;73.50;;;;;;5004974;28;20049;-49
2023/04/16 05:18:04;;;;;;;15.05;11.38;;;12.00;73.40;;;;;;5013144;28;20053;-46
2023/04/16 05:20:31;;;;;;;18.58;11.48;;;12.00;73.30;;;;;;5007796;28;20046;-47
2023/04/16 05:22:57;;;;;;;20.90;12.00;;;12.00;73.20;;;;;;5013522;28;20437;-46
2023/04/16 05:25:24;;;;;;;18.83;11.57;;;12.00;73.20;;;;;;5013196;28;20046;-46
2023/04/16 05:27:51;;;;;;;20.17;11.40;;;12.00;73.20;;;;;;5012770;28;20054;-48
2023/04/16 05:30:17;;;;;;;20.30;13.32;;;12.00;73.20;;;;;;5007754;28;20506;-47
2023/04/16 05:32:44;;;;;;;18.58;11.50;;;12.00;73.30;;;;;;5010993;28;20582;-47
2023/04/16 05:35:11;;;;;;;18.70;11.90;;;12.00;73.30;;;;;;5009524;28;20205;-46
2023/04/16 05:37:40;;;;;;;16.05;11.27;;;12.00;73.30;;;;;;5013024;28;20042;-47
2023/04/16 05:40:07;;;;;;;16.55;11.02;;;12.10;73.40;;;;;;5013319;28;20108;-47
2023/04/16 05:42:34;;;;;;;18.58;12.00;;;12.10;73.40;;;;;;5006864;28;20046;-50
2023/04/16 05:45:03;;;;;;;17.88;11.80;;;12.10;73.40;;;;;;5012896;28;20057;-47
2023/04/16 05:47:29;;;;;;;17.42;11.90;;;12.10;73.50;;;;;;5012783;28;20506;-46
2023/04/16 05:49:58;;;;;;;23.08;13.68;;;12.10;73.50;;;;;;5010521;28;20042;-47
2023/04/16 05:52:25;;;;;;;19.30;12.00;;;12.20;73.40;;;;;;5012543;28;20034;-46
2023/04/16 05:54:51;;;;;;;22.20;13.48;;;12.20;73.30;;;;;;5010240;28;20626;-47
2023/04/16 05:57:18;;;;;;;21.90;13.60;;;12.20;73.30;;;;;;5010677;28;20030;-46
2023/04/16 05:59:45;;;;;;;21.02;12.85;;;12.20;73.40;;;;;;5012815;28;20506;-47
2023/04/16 06:02:12;;;;;;;21.23;12.32;;;12.20;73.30;;;;;;5004397;28;20104;-45
2023/04/16 06:04:38;;;;;;;19.88;13.73;;;12.20;73.40;;;;;;5006463;28;20056;-46
2023/04/16 06:07:05;;;;;;;25.00;13.48;;;12.20;73.50;;;;;;5012769;28;20073;-48
2023/04/16 06:09:36;;;;;;;21.02;12.88;;;12.20;73.50;;;;;;5019737;28;20449;-49
2023/04/16 06:12:03;;;;;;;19.02;12.30;;;12.30;73.50;;;;;;5009163;28;20490;-46
2023/04/16 06:14:29;;;;;;;18.13;12.35;;;12.20;73.40;;;;;;5010646;28;20038;-48
2023/04/16 06:16:58;;;;;;;16.67;11.23;;;12.30;73.50;;;;;;5010682;28;20038;-45
2023/04/16 06:19:28;;;;;;;17.65;11.25;;;12.30;73.50;;;;;;5010185;28;20437;-47
2023/04/16 06:21:57;;;;;;;16.23;11.88;;;12.30;73.50;;;;;;5002524;28;20038;-49
2023/04/16 06:24:26;;;;;;;21.27;12.63;;;12.30;73.50;;;;;;5010003;28;20045;-47
2023/04/16 06:26:53;;;;;;;18.63;13.15;;;12.30;73.60;;;;;;5003729;28;20050;-49
2023/04/16 06:29:22;;;;;;;19.92;12.73;;;12.30;73.50;;;;;;5006005;28;20046;-49
2023/04/16 06:32:03;;;;;;;18.42;12.38;;;12.30;73.50;;;;;;5008353;28;20065;-47
2023/04/16 06:34:29;;;;;;;22.83;13.23;;;12.40;73.40;;;;;;4999608;28;20085;-48
2023/04/16 06:36:56;;;;;;;19.30;12.85;;;12.40;73.30;;;;;;4997097;28;20046;-48
2023/04/16 06:39:23;;;;;;;20.30;12.85;;;12.30;73.30;;;;;;5008569;28;20045;-47
2023/04/16 06:41:49;;;;;;;19.70;13.18;;;12.40;73.40;;;;;;5008495;28;20528;-46
2023/04/16 06:44:16;;;;;;;18.17;12.40;;;12.30;73.50;;;;;;4964786;28;20042;-46
2023/04/16 06:46:44;;;;;;;20.10;12.65;;;12.30;73.40;;;;;;5002021;28;20663;-46
2023/04/16 06:49:11;;;;;;;20.17;13.43;;;12.40;73.50;;;;;;5005318;28;20057;-45
2023/04/16 06:51:38;;;;;;;26.25;13.85;;;12.40;73.40;;;;;;5008771;28;20038;-48
2023/04/16 06:54:05;;;;;;;19.98;12.68;;;12.40;73.40;;;;;;5008147;28;20052;-47
2023/04/16 06:56:35;;;;;;;21.83;13.57;;;12.40;73.50;;;;;;5007951;28;20061;-44
2023/04/16 06:59:02;;;;;;;24.40;14.90;;;12.40;73.50;;;;;;5004883;28;20044;-48
2023/04/16 07:01:32;;;;;;;22.23;13.45;;;12.40;73.40;;;;;;5005089;28;20038;-46
2023/04/16 07:03:59;;;;;;;21.45;14.23;;;12.40;73.50;;;;;;5002756;28;20061;-46
2023/04/16 07:06:26;;;;;;;25.17;13.38;;;12.40;73.40;;;;;;5008226;28;20038;-45
2023/04/16 07:08:55;;;;;;;18.60;12.90;;;12.40;73.50;;;;;;5009689;28;20046;-46
2023/04/16 07:11:22;;;;;;;18.52;11.73;;;12.40;73.40;;;;;;5006371;28;20046;-50
2023/04/16 07:13:50;;;;;;;17.13;12.57;;;12.50;73.50;;;;;;5003124;28;20042;-44
2023/04/16 07:16:17;;;;;;;18.73;12.43;;;12.50;73.40;;;;;;4997287;28;20108;-45
2023/04/16 07:18:43;;;;;;;16.88;11.35;;;12.50;73.50;;;;;;5009790;28;20050;-46
2023/04/16 07:21:10;;;;;;;19.80;13.02;;;12.50;73.60;;;;;;5005804;28;20052;-46
2023/04/16 07:23:36;;;;;;;22.20;13.07;;;12.50;73.50;;;;;;5008919;28;20110;-49
2023/04/16 07:26:03;;;;;;;16.42;12.48;;;12.50;73.40;;;;;;5010955;28;20517;-48
2023/04/16 07:28:30;;;;;;;18.42;12.52;;;12.50;73.30;;;;;;5008661;28;20042;-48
2023/04/16 07:30:56;;;;;;;22.55;13.20;;;12.50;73.20;;;;;;5004047;28;20046;-46
2023/04/16 07:33:23;;;;;;;19.95;13.13;;;12.60;73.40;;;;;;5002884;28;20041;-46
2023/04/16 07:35:50;;;;;;;18.20;12.57;;;12.60;73.40;;;;;;5006681;28;20042;-48
2023/04/16 07:38:16;;;;;;;20.15;13.15;;;12.60;73.40;;;;;;5009131;28;20401;-47
2023/04/16 07:40:43;;;;;;;21.25;13.50;;;12.60;73.40;;;;;;4997914;28;20418;-50
2023/04/16 07:43:10;;;;;;;19.58;12.20;;;12.60;73.20;;;;;;5004569;28;20057;-47
2023/04/16 07:45:36;;;;;;;17.92;12.98;;;12.60;73.00;;;;;;5007804;28;20061;-50
2023/04/16 07:48:04;;;;;;;19.90;13.05;;;12.70;73.10;;;;;;5009793;28;20045;-49
2023/04/16 07:50:31;;;;;;;21.45;12.63;;;12.70;72.90;;;;;;5006203;28;20510;-46
2023/04/16 07:52:57;;;;;;;21.65;13.00;;;12.70;72.80;;;;;;5012203;28;20037;-50
2023/04/16 07:55:24;;;;;;;19.77;13.00;;;12.70;72.60;;;;;;5006280;28;20046;-45
2023/04/16 07:57:51;;;;;;;21.25;13.43;;;12.70;72.60;;;;;;5009406;28;20038;-49
2023/04/16 08:00:17;;;;;;;20.23;13.68;;;12.80;72.60;;;;;;5009064;28;20046;-47
2023/04/16 08:02:44;;;;;;;19.83;12.02;;;12.70;72.50;;;;;;5006801;28;20045;-48
2023/04/16 08:05:11;;;;;;;17.13;12.13;;;12.80;72.40;;;;;;5002580;28;20066;-46
2023/04/16 08:07:38;;;;;;;19.50;13.23;;;12.80;72.40;;;;;;5009308;28;20118;-48
2023/04/16 08:10:05;;;;;;;18.17;12.85;;;12.80;72.40;;;;;;5008847;28;20406;-45
2023/04/16 08:12:32;;;;;;;20.95;13.80;;;12.80;72.50;;;;;;5008374;28;20625;-47
2023/04/16 08:14:58;;;;;;;18.33;12.55;;;12.80;72.40;;;;;;5010138;28;20442;-50
2023/04/16 08:17:27;;;;;;;17.90;12.55;;;12.90;72.50;;;;;;5010095;28;20046;-47
2023/04/16 08:19:53;;;;;;;18.58;12.20;;;12.90;72.50;;;;;;5004016;28;20050;-49
2023/04/16 08:22:22;;;;;;;16.67;11.45;;;12.90;72.60;;;;;;5006228;28;20052;-46
2023/04/16 08:24:49;;;;;;;17.50;12.30;;;12.90;72.60;;;;;;5008157;28;20048;-47
2023/04/16 08:27:16;;;;;;;21.63;13.70;;;13.00;72.30;;;;;;4991376;28;20042;-49
2023/04/16 08:29:47;;;;;;;17.95;12.15;;;12.90;72.20;;;;;;5005659;28;20092;-47
2023/04/16 08:32:13;;;;;;;20.55;12.50;;;13.00;72.10;;;;;;5007635;28;20041;-46
2023/04/16 08:34:41;;;;;;;16.98;13.10;;;13.00;72.00;;;;;;4999742;28;20061;-47
2023/04/16 08:37:07;;;;;;;15.85;12.02;;;13.00;72.30;;;;;;5005241;28;20034;-46
2023/04/16 08:39:34;;;;;;;18.60;12.43;;;13.10;72.40;;;;;;5008750;28;20034;-58
2023/04/16 08:42:07;;;;;;;16.77;12.13;;;13.10;72.10;;;;;;5006203;28;20030;-50
2023/04/16 08:44:40;;;;;;;16.20;12.18;;;13.10;71.90;;;;;;5007753;28;20042;-50
2023/04/16 08:47:11;;;;;;;17.95;11.55;;;13.10;71.60;;;;;;5009409;28;20057;-47
2023/04/16 08:49:43;;;;;;;16.00;12.07;;;13.20;71.50;;;;;;5006037;28;20640;-46
2023/04/16 08:52:17;;;;;;;18.42;12.52;;;13.20;71.60;;;;;;5004089;28;20048;-47
2023/04/16 08:55:05;;;;;;;17.25;11.90;;;13.20;71.70;;;;;;5011465;28;20113;-49
2023/04/16 08:57:42;;;;;;;17.02;12.50;;;13.30;72.00;;;;;;5005433;28;20045;-49
2023/04/16 09:00:10;;;;;;;17.60;12.57;;;13.30;71.40;;;;;;4995343;28;20057;-47
2023/04/16 09:02:37;;;;;;;16.05;11.35;;;13.30;70.90;;;;;;5009234;28;20533;-47
2023/04/16 09:05:06;;;;;;;18.38;12.40;;;13.30;70.80;;;;;;5008629;28;20498;-49
2023/04/16 09:07:34;;;;;;;15.90;12.00;;;13.40;70.90;;;;;;4996001;28;20181;-47
2023/04/16 09:10:01;;;;;;;17.23;12.18;;;13.30;70.90;;;;;;5012306;28;20146;-44
2023/04/16 09:12:30;;;;;;;19.08;12.55;;;13.30;70.80;;;;;;5005257;28;20031;-46
2023/04/16 09:14:59;;;;;;;18.30;12.65;;;13.40;70.90;;;;;;5011404;28;20048;-46
2023/04/16 09:17:26;;;;;;;20.05;13.68;;;13.40;71.00;;;;;;5012543;28;20065;-49
2023/04/16 09:19:55;;;;;;;17.77;13.02;;;13.40;70.90;;;;;;5022963;22;20116;31
2023/04/16 09:22:22;;;;;;;20.73;14.10;;;13.50;71.00;;;;;;5028306;28;20049;-49
2023/04/16 09:24:48;;;;;;;18.90;14.65;;;13.50;70.80;;;;;;5031982;28;20432;-46
2023/04/16 09:27:16;;;;;;;18.17;13.70;;;13.50;70.90;;;;;;5031763;28;20064;-48
2023/04/16 09:29:42;;;;;;;19.10;13.15;;;13.50;71.00;;;;;;5007354;28;20045;-49
2023/04/16 09:32:10;;;;;;;19.83;13.75;;;13.60;70.80;;;;;;5028123;28;20044;-47
2023/04/16 09:34:54;;;;;;;20.65;13.77;;;13.70;70.70;;;;;;5008870;28;20091;-49
2023/04/16 09:37:21;;;;;;;21.02;13.30;;;13.70;70.70;;;;;;5030356;28;20529;-48
2023/04/16 09:39:59;;;;;;;20.15;13.73;;;13.80;70.40;;;;;;5030743;28;20060;-46
2023/04/16 09:42:30;;;;;;;18.00;14.45;;;13.80;70.00;;;;;;5027996;28;20041;-46
2023/04/16 09:44:58;;;;;;;20.03;14.47;;;13.90;70.00;;;;;;5038005;28;20601;-48
2023/04/16 09:47:42;;;;;;;18.85;13.48;;;13.90;69.60;;;;;;5031479;28;20763;-45
2023/04/16 09:50:14;;;;;;;20.02;14.45;;;14.00;69.70;;;;;;5030285;28;20666;-47
2023/04/16 09:52:49;;;;;;;16.85;12.80;;;14.00;69.50;;;;;;5025451;28;20044;-48
2023/04/16 09:55:22;;;;;;;24.42;16.23;;;14.10;69.20;;;;;;5026947;28;20121;-48
2023/04/16 09:57:57;;;;;;;20.60;15.48;;;14.10;68.70;;;;;;5030619;28;20121;-49
2023/04/16 10:00:24;;;;;;;22.80;15.68;;;14.20;68.80;;;;;;5020551;28;20469;-47
2023/04/16 10:03:03;;;;;;;20.33;14.57;;;14.20;68.60;;;;;;5028899;28;20049;-46
2023/04/16 10:05:30;;;;;;;22.88;14.43;;;14.30;68.70;;;;;;5029628;28;20045;-46
2023/04/16 10:08:00;;;;;;;22.83;14.02;;;14.20;68.20;;;;;;5029745;28;20517;-46
2023/04/16 10:10:28;;;;;;;19.65;13.63;;;14.30;68.00;;;;;;5030506;28;20420;-50
2023/04/16 10:12:55;;;;;;;19.65;14.38;;;14.40;68.00;;;;;;5029836;28;20038;-47
2023/04/16 10:15:22;;;;;;;21.80;14.63;;;14.40;68.10;;;;;;5034430;28;20083;-45
2023/04/16 10:17:50;;;;;;;21.88;15.50;;;14.50;68.40;;;;;;5029607;28;20091;-48
2023/04/16 10:20:17;;;;;;;20.17;14.65;;;14.60;68.30;;;;;;5011183;28;20548;-46
2023/04/16 10:22:44;;;;;;;19.95;15.00;;;14.60;68.00;;;;;;5029378;28;20048;-49
2023/04/16 10:25:11;;;;;;;18.30;13.60;;;14.70;67.80;;;;;;5028679;28;20044;-46
2023/04/16 10:27:40;;;;;;;20.60;13.93;;;14.80;67.50;;;;;;5030582;28;20049;-46
2023/04/16 10:30:08;;;;;;;26.42;15.18;;;14.90;67.30;;;;;;5030080;28;20102;-47
2023/04/16 10:32:38;;;;;;;23.90;13.88;;;15.00;66.90;;;;;;5027320;28;20426;-49
2023/04/16 10:35:05;;;;;;;23.48;15.10;;;15.10;67.00;;;;;;5025782;28;20065;-47
2023/04/16 10:37:32;;;;;;;24.48;14.68;;;15.10;66.80;;;;;;5029257;28;20038;-50
2023/04/16 10:39:59;;;;;;;19.88;13.65;;;15.20;66.90;;;;;;5028375;28;20033;-46
2023/04/16 10:42:28;;;;;;;20.83;13.57;;;15.30;66.70;;;;;;5032743;28;20037;-47
2023/04/16 10:44:58;;;;;;;21.55;15.10;;;15.50;66.90;;;;;;5030146;28;20048;-48
2023/04/16 10:47:25;;;;;;;18.85;12.73;;;15.60;66.00;;;;;;5028906;28;20033;-50
2023/04/16 10:49:52;;;;;;;18.95;13.50;;;15.70;65.60;;;;;;5032292;28;20065;-47
2023/04/16 10:52:21;;;;;;;18.40;13.05;;;15.80;65.50;;;;;;5027773;28;20041;-49
2023/04/16 10:54:48;;;;;;;19.00;13.55;;;15.90;65.40;;;;;;5029096;28;20038;-47
2023/04/16 10:57:16;;;;;;;17.60;12.55;;;16.00;65.00;;;;;;5028405;28;20029;-49
2023/04/16 10:59:44;;;;;;;18.50;12.50;;;16.10;64.10;;;;;;5030673;28;20033;-48
2023/04/16 11:02:42;;;;;;;18.30;12.35;;;16.20;64.20;;;;;;5023627;28;20041;-52
2023/04/16 11:05:11;;;;;;;14.55;11.85;;;16.30;62.60;;;;;;5016592;28;20053;-49
2023/04/16 11:07:49;;;;;;;15.38;11.38;;;16.30;62.80;;;;;;5028941;28;20084;-46
2023/04/16 11:10:15;;;;;;;14.27;10.95;;;16.40;62.00;;;;;;5035327;28;20048;-47
2023/04/16 11:12:45;;;;;;;15.02;11.60;;;16.40;62.90;;;;;;5033616;28;20446;-48
2023/04/16 11:15:14;;;;;;;14.43;11.57;;;16.50;62.80;;;;;;5040427;28;20102;-47
2023/04/16 11:17:44;;;;;;;14.52;11.75;;;16.60;62.70;;;;;;5027813;28;20033;-48
2023/04/16 11:20:17;;;;;;;13.98;11.43;;;16.70;62.00;;;;;;5015739;28;20127;-47
2023/04/16 11:22:51;;;;;;;16.33;12.43;;;16.80;61.40;;;;;;5027651;28;20046;-46
2023/04/16 11:25:25;;;;;;;15.48;11.73;;;16.80;60.70;;;;;;5029202;28;20045;-51
2023/04/16 11:27:52;;;;;;;15.07;12.07;;;16.90;61.00;;;;;;5023722;28;20041;-50
2023/04/16 11:30:34;;;;;;;15.13;10.93;;;16.80;61.20;;;;;;5029052;28;20037;-46
2023/04/16 11:33:07;;;;;;;14.27;10.75;;;16.90;60.80;;;;;;5020726;28;20041;-45
2023/04/16 11:35:34;;;;;;;13.23;10.45;;;16.90;60.30;;;;;;5599693;22;20013;-45
2023/04/16 11:38:01;;;;;;;15.05;10.73;;;16.90;60.00;;;;;;5028000;28;20045;-46
2023/04/16 11:40:30;;;;;;;13.65;10.05;;;16.90;59.70;;;;;;5028960;28;20045;-48
2023/04/16 11:43:12;;;;;;;14.68;10.93;;;17.00;59.30;;;;;;5015875;28;20405;-45
2023/04/16 11:45:55;;;;;;;12.90;9.88;;;17.10;59.00;;;;;;5030331;28;20056;-44
2023/04/16 11:48:21;;;;;;;;;;;17.20;59.40;;;;;;5013717;28;20046;-45
2023/04/16 11:50:58;;;;;;;12.90;9.52;;;17.30;60.00;;;;;;5006862;28;20395;-45
2023/04/16 11:53:25;;;;;;;13.48;10.68;;;17.40;58.70;;;;;;5000231;28;20065;-44
2023/04/16 11:55:52;;;;;;;13.10;9.95;;;17.40;58.70;;;;;;5018546;28;20048;-45
2023/04/16 11:58:21;;;;;;;12.65;10.00;;;17.50;58.70;;;;;;5009453;28;20041;-45
2023/04/16 12:00:52;;;;;;;13.55;10.25;;;17.60;58.60;;;;;;5009626;28;20745;-46
2023/04/16 12:03:36;;;;;;;14.40;10.07;;;17.60;58.30;;;;;;5002194;28;20054;-46
2023/04/16 12:06:08;;;;;;;12.65;9.13;;;17.70;57.30;;;;;;5009881;28;20117;-44
2023/04/16 12:08:35;;;;;;;14.23;11.18;;;17.70;57.10;;;;;;5007202;28;20037;-46
2023/04/16 12:11:01;;;;;;;11.23;9.15;;;17.70;57.10;;;;;;5006287;28;20038;-47
2023/04/16 12:13:28;;;;;;;11.32;9.85;;;17.80;57.60;;;;;;5006720;28;20136;-46
2023/04/16 12:15:55;;;;;;;11.38;9.70;;;17.80;57.20;;;;;;5009905;28;20049;-44
2023/04/16 12:18:25;;;;;;;12.55;10.60;;;17.80;56.70;;;;;;5008566;28;20417;-44
2023/04/16 12:20:52;;;;;;;13.57;10.63;;;17.90;56.20;;;;;;5008051;28;20062;-45
2023/04/16 12:23:30;;;;;;;12.60;11.25;;;17.90;57.00;;;;;;5009182;28;20046;-44
2023/04/16 12:26:01;;;;;;;14.20;10.63;;;17.80;55.60;;;;;;5002747;28;20049;-46
2023/04/16 12:28:33;;;;;;;12.43;10.20;;;17.70;55.80;;;;;;5001903;28;20046;-46
2023/04/16 12:31:02;;;;;;;11.88;9.30;;;17.60;56.20;;;;;;5006045;28;20040;-46
2023/04/16 12:33:30;;;;;;;10.48;9.02;;;17.60;56.70;;;;;;5011235;28;20421;-45
2023/04/16 12:35:56;;;;;;;13.15;11.10;;;17.50;56.80;;;;;;5006863;28;20563;-44
2023/04/16 12:38:24;;;;;;;14.13;10.40;;;17.50;56.60;;;;;;5011618;28;20432;-45
2023/04/16 12:40:51;;;;;;;14.82;10.73;;;17.50;57.00;;;;;;5013599;28;20493;-45